Breesport, New York
Current Conditions -  °F | °C
As of 4:53 PM on Thursday 23 Oct 2014 (Local Time) from KELM Reporting Station
Overcast Overcast  
Wind Chill: 55°   Ceiling: 3200
Heat Index: 55°   Visibility: 10mi
Dew Point: 42°   Wind: 15mph
Humidity: 62%   Direction: 20°NNE
Pressure: 29.92"   Gusts: 22mph
Location:  42.17°N, 76.73°W
Report Text: KELM 232053Z 02013G19KT 10SM OVC032 13/06 A2992 RMK AO2 SLP133 T01280056 58002
Loading
Personal Weather Stations






























Interactive Weather Map
Tropical Storm Tracking
New forecast layout! Learn more

10-Day Weather Forecast

Advertisements
Track Severe Weather on mobile